Canton Township, Michigan
Current Conditions -  °F | °C
As of 4:53 AM on Tuesday 21 Oct 2014 (Local Time) from KYIP Reporting Station
Overcast Overcast  
Wind Chill: 52°   Ceiling: 2100
Heat Index: 52°   Visibility: 10mi
Dew Point: 43°   Wind: 9mph
Humidity: 71%   Direction: 330°NNW
Pressure: 29.91"   Gusts: NA
Location:  42.2857°N, 83.4854°W
Report Text: KYIP 210853Z AUTO 33008KT 10SM BKN021 OVC055 11/06 A2991 RMK AO2 SLP125 T01110061 51005 TSNO
Loading
Personal Weather Stations






























Interactive Weather Map
Tropical Storm Tracking
New forecast layout! Learn more

10-Day Weather Forecast

Advertisements
Track Severe Weather on mobile